Time;durP1;ratioP1;P1;durP2;ratioP2;P2;SDS_P1;SDS_P2;PMS_P1;PMS_P2;Temp;Humidity;BMP_temperature;BMP_pressure;BME280_temperature;BME280_humidity;BME280_pressure;Samples;Min_cycle;Max_cycle;Signal;HPM_P1;HPM_P2
2024/01/03 00:00:20;;;;;;;1999.90;999.90;;;;;;;1.53;92.75;96110.16;5068632;28;20438;-66
2024/01/03 00:02:47;;;;;;;1999.90;999.90;;;;;;;1.51;92.09;96111.00;5073642;28;20090;-66
2024/01/03 00:05:19;;;;;;;1999.90;999.90;;;;;;;1.49;91.29;96107.59;5073155;28;20487;-64
2024/01/03 00:07:48;;;;;;;1999.90;999.90;;;;;;;1.47;91.28;96108.47;5073272;28;20047;-64
2024/01/03 00:10:30;;;;;;;1999.90;999.90;;;;;;;1.48;91.14;96103.28;5073202;28;20490;-67
2024/01/03 00:12:57;;;;;;;1999.90;999.90;;;;;;;1.45;91.31;96099.91;5073126;28;20411;-65
2024/01/03 00:16:06;;;;;;;1999.90;999.90;;;;;;;1.46;91.98;96101.59;5072451;28;20044;-66
2024/01/03 00:18:36;;;;;;;1999.90;999.90;;;;;;;1.43;92.38;96102.50;5057699;28;20083;-63
2024/01/03 00:21:05;;;;;;;1999.90;999.90;;;;;;;1.42;92.06;96090.47;5072965;28;20127;-67
2024/01/03 00:23:37;;;;;;;1999.90;999.90;;;;;;;1.40;91.90;96092.19;5073138;28;20049;-64
2024/01/03 00:26:06;;;;;;;1999.90;999.90;;;;;;;1.45;91.47;96098.19;5073026;28;20399;-68
2024/01/03 00:28:40;;;;;;;1999.90;999.90;;;;;;;1.45;91.22;96095.59;5073068;28;20059;-62
2024/01/03 00:31:10;;;;;;;1999.90;999.90;;;;;;;1.47;90.80;96100.72;5073388;28;20482;-68
2024/01/03 00:33:42;;;;;;;1999.90;999.90;;;;;;;1.47;91.11;96101.59;5073005;28;20041;-65
2024/01/03 00:36:16;;;;;;;1999.90;999.90;;;;;;;1.49;91.25;96107.59;5072991;28;20094;-64
2024/01/03 00:38:45;;;;;;;1999.90;999.90;;;;;;;1.50;91.06;96109.28;5073005;28;20049;-67
2024/01/03 00:41:13;;;;;;;1999.90;999.90;;;;;;;1.53;90.89;96110.16;5072806;28;20053;-62
2024/01/03 00:43:40;;;;;;;1999.90;999.90;;;;;;;1.53;90.56;96111.00;5072957;28;20095;-68
2024/01/03 00:46:09;;;;;;;1999.90;999.90;;;;;;;1.50;90.98;96121.31;5072861;28;20124;-67
2024/01/03 00:48:36;;;;;;;1999.90;999.90;;;;;;;1.42;90.94;96093.06;5072992;28;20052;-67
2024/01/03 00:51:07;;;;;;;1999.90;999.90;;;;;;;1.56;90.59;96117.88;5073042;28;20060;-66
2024/01/03 00:53:36;;;;;;;1999.90;999.90;;;;;;;1.54;90.38;96115.28;5072727;28;20482;-65
2024/01/03 00:56:04;;;;;;;1999.90;999.90;;;;;;;1.53;90.70;96118.72;5072706;28;20457;-67
2024/01/03 00:58:31;;;;;;;1999.90;999.90;;;;;;;1.54;90.97;96122.16;5072620;28;20494;-66
2024/01/03 01:00:58;;;;;;;1999.90;999.90;;;;;;;1.58;91.10;96121.25;5072598;28;20057;-62
2024/01/03 01:03:26;;;;;;;1999.90;999.90;;;;;;;1.63;91.48;96115.19;5072934;28;20095;-65
2024/01/03 01:05:53;;;;;;;1999.90;999.90;;;;;;;1.62;91.42;96118.66;5072619;28;20076;-62
2024/01/03 01:08:21;;;;;;;1999.90;999.90;;;;;;;1.61;91.26;96114.38;5072571;28;20049;-68
2024/01/03 01:10:49;;;;;;;1999.90;999.90;;;;;;;1.56;91.86;96116.13;5072602;28;20051;-68
2024/01/03 01:13:16;;;;;;;1999.90;999.90;;;;;;;1.53;91.80;96111.00;5072591;28;20044;-66
2024/01/03 01:15:44;;;;;;;1999.90;999.90;;;;;;;1.53;92.13;96100.66;5072720;28;20398;-69
2024/01/03 01:18:11;;;;;;;1999.90;999.90;;;;;;;1.50;91.82;96098.13;5072447;28;20486;-68
2024/01/03 01:20:39;;;;;;;1999.90;999.90;;;;;;;1.51;92.46;96092.94;5072430;28;20044;-65
2024/01/03 01:23:06;;;;;;;1999.90;999.90;;;;;;;1.57;92.88;96093.78;5072360;28;20045;-66
2024/01/03 01:25:34;;;;;;;1999.90;999.90;;;;;;;1.60;92.79;96088.59;5073826;28;20049;-64
2024/01/03 01:28:03;;;;;;;1999.90;999.90;;;;;;;1.65;93.00;96089.38;5076171;28;20067;-68
2024/01/03 01:30:30;;;;;;;1999.90;999.90;;;;;;;1.57;92.96;96078.31;5076108;28;20060;-67
2024/01/03 01:32:57;;;;;;;1999.90;999.90;;;;;;;1.59;93.72;96073.97;5075993;28;20123;-66
2024/01/03 01:35:24;;;;;;;1999.90;999.90;;;;;;;1.63;93.28;96076.50;5075947;28;20072;-66
2024/01/03 01:37:51;;;;;;;1999.90;999.90;;;;;;;1.64;92.55;96075.66;5075828;28;20045;-65
2024/01/03 01:40:18;;;;;;;1999.90;999.90;;;;;;;1.65;92.77;96084.22;5075878;28;20084;-65
2024/01/03 01:42:46;;;;;;;1999.90;999.90;;;;;;;1.68;92.55;96086.78;5076149;28;20147;-64
2024/01/03 01:45:14;;;;;;;1999.90;999.90;;;;;;;1.67;92.57;96090.25;5075823;28;20182;-66
2024/01/03 01:47:43;;;;;;;1999.90;999.90;;;;;;;1.70;93.38;96086.75;5075795;28;20044;-63
2024/01/03 01:50:11;;;;;;;1999.90;999.90;;;;;;;1.76;93.84;96082.41;5075586;28;20487;-67
2024/01/03 01:52:40;;;;;;;1999.90;999.90;;;;;;;1.81;94.07;96090.13;5075673;28;20059;-64
2024/01/03 01:55:08;;;;;;;1999.90;999.90;;;;;;;1.89;94.01;96084.84;5075724;28;20052;-68
2024/01/03 01:57:37;;;;;;;1999.90;999.90;;;;;;;1.92;93.81;96082.22;5075627;28;20128;-65
2024/01/03 02:00:05;;;;;;;1999.90;999.90;;;;;;;1.96;93.01;96083.06;5075713;28;20048;-67
2024/01/03 02:02:36;;;;;;;1999.90;999.90;;;;;;;2.01;92.43;96076.13;5075564;28;20051;-66
2024/01/03 02:05:04;;;;;;;1999.90;999.90;;;;;;;2.03;92.35;96076.97;5075492;28;20080;-66
2024/01/03 02:07:32;;;;;;;1999.90;999.90;;;;;;;2.07;92.29;96080.34;5075444;28;20464;-63
2024/01/03 02:09:59;;;;;;;1999.90;999.90;;;;;;;2.11;91.95;96082.03;5075435;28;20122;-66
2024/01/03 02:12:30;;;;;;;1999.90;999.90;;;;;;;2.14;91.91;96077.69;5075225;28;20044;-67
2024/01/03 02:14:57;;;;;;;1999.90;999.90;;;;;;;2.17;91.94;96074.22;5075205;28;20056;-69
2024/01/03 02:17:24;;;;;;;1999.90;999.90;;;;;;;2.20;91.79;96076.75;5075293;28;20211;-68
2024/01/03 02:19:52;;;;;;;1999.90;999.90;;;;;;;2.24;91.70;96075.84;5074840;28;20063;-67
2024/01/03 02:22:21;;;;;;;1999.90;999.90;;;;;;;2.28;91.98;96068.91;5075281;28;20482;-67
2024/01/03 02:24:48;;;;;;;1999.90;999.90;;;;;;;2.33;91.70;96074.88;5075255;28;20052;-68
2024/01/03 02:27:15;;;;;;;1999.90;999.90;;;;;;;2.34;91.44;96058.50;5074964;28;20137;-64
2024/01/03 02:29:42;;;;;;;1999.90;999.90;;;;;;;2.35;91.19;96059.38;5074985;28;20059;-64
2024/01/03 02:32:09;;;;;;;1999.90;999.90;;;;;;;2.37;91.22;96055.91;5075073;28;20080;-65
2024/01/03 02:34:36;;;;;;;1999.90;999.90;;;;;;;2.40;91.34;96062.75;5074987;28;20045;-69
2024/01/03 02:37:04;;;;;;;1999.90;999.90;;;;;;;2.42;91.46;96052.38;5074333;28;20070;-64
2024/01/03 02:39:32;;;;;;;1999.90;999.90;;;;;;;2.37;91.63;96049.88;5074763;28;20101;-69
2024/01/03 02:41:59;;;;;;;1999.90;999.90;;;;;;;2.37;92.26;96039.53;5074708;28;20483;-68
2024/01/03 02:44:27;;;;;;;1999.90;999.90;;;;;;;2.43;92.58;96041.19;5074767;28;20044;-67
2024/01/03 02:46:54;;;;;;;1999.90;999.90;;;;;;;2.47;92.73;96037.72;5074699;28;20127;-69
2024/01/03 02:49:21;;;;;;;1999.90;999.90;;;;;;;2.49;92.90;96031.63;5074967;28;20119;-66
2024/01/03 02:51:48;;;;;;;1999.90;999.90;;;;;;;2.53;92.85;96035.88;5074450;28;20044;-68
2024/01/03 02:54:15;;;;;;;1999.90;999.90;;;;;;;2.58;92.77;96032.38;5074699;28;20044;-66
2024/01/03 02:56:43;;;;;;;1999.90;999.90;;;;;;;2.59;93.01;96032.34;5074675;28;20052;-66
2024/01/03 02:59:11;;;;;;;1999.90;999.90;;;;;;;2.61;92.58;96027.16;5074489;28;20056;-65
2024/01/03 03:01:38;;;;;;;1999.90;999.90;;;;;;;2.61;92.44;96025.44;5074290;28;20410;-66
2024/01/03 03:04:05;;;;;;;1999.90;999.90;;;;;;;2.62;92.15;96029.72;5074291;28;20127;-66
2024/01/03 03:06:31;;;;;;;1999.90;999.90;;;;;;;2.65;92.15;96031.44;5074534;28;20045;-68
2024/01/03 03:08:59;;;;;;;1999.90;999.90;;;;;;;2.67;92.57;96034.00;5074090;28;20143;-66
2024/01/03 03:11:26;;;;;;;1999.90;999.90;;;;;;;2.68;92.55;96039.09;5074314;28;20045;-64
2024/01/03 03:13:55;;;;;;;1999.90;999.90;;;;;;;2.68;92.58;96036.53;5074126;28;20140;-69
2024/01/03 03:16:22;;;;;;;1999.90;999.90;;;;;;;2.71;92.35;96041.66;5074201;28;20597;-67
2024/01/03 03:18:49;;;;;;;1999.90;999.90;;;;;;;2.69;92.04;96042.56;5073933;28;20060;-66
2024/01/03 03:21:16;;;;;;;1999.90;999.90;;;;;;;2.70;91.87;96042.53;5073826;28;20060;-66
2024/01/03 03:23:43;;;;;;;1999.90;999.90;;;;;;;2.68;91.81;96033.94;5073917;28;20111;-67
2024/01/03 03:26:11;;;;;;;1999.90;999.90;;;;;;;2.67;91.99;96027.06;5073839;28;20131;-66
2024/01/03 03:28:39;;;;;;;1999.90;999.90;;;;;;;2.68;91.59;96030.53;5073792;28;20590;-68
2024/01/03 03:31:07;;;;;;;1999.90;999.90;;;;;;;2.63;91.77;96021.13;5073887;28;20409;-64
2024/01/03 03:33:35;;;;;;;1999.90;999.90;;;;;;;2.61;92.20;96020.28;5073801;28;20048;-66
2024/01/03 03:36:01;;;;;;;1999.90;999.90;;;;;;;2.63;92.30;96015.09;5073637;28;20139;-66
2024/01/03 03:38:28;;;;;;;1999.90;999.90;;;;;;;2.62;91.95;96021.13;5073671;28;20044;-66
2024/01/03 03:40:55;;;;;;;1999.90;999.90;;;;;;;2.59;91.80;96027.19;5073790;28;20048;-67
2024/01/03 03:43:22;;;;;;;1999.90;999.90;;;;;;;2.60;91.90;96020.28;5073708;28;20044;-66
2024/01/03 03:45:50;;;;;;;1999.90;999.90;;;;;;;2.59;91.71;96016.84;5073374;28;20127;-65
2024/01/03 03:48:18;;;;;;;1999.90;999.90;;;;;;;2.59;91.76;96006.53;5072803;28;20110;-65
2024/01/03 03:50:45;;;;;;;1999.90;999.90;;;;;;;2.55;91.60;96004.88;5073133;28;20051;-67
2024/01/03 03:53:12;;;;;;;1999.90;999.90;;;;;;;2.58;92.03;96010.00;5073464;28;20044;-68
2024/01/03 03:55:43;;;;;;;1999.90;999.90;;;;;;;2.58;92.14;96011.72;5073351;28;20048;-63
2024/01/03 03:58:09;;;;;;;;;;;;;;;2.58;91.97;96009.13;5073938;28;20048;-66
2024/01/03 04:00:36;;;;;;;1999.90;999.90;;;;;;;2.49;92.08;96003.22;5073526;28;19966;-67
2024/01/03 04:03:07;;;;;;;1999.90;999.90;;;;;;;2.50;92.21;96004.09;5073119;28;20048;-65
2024/01/03 04:05:48;;;;;;;1999.90;999.90;;;;;;;2.52;91.79;96010.94;5073241;28;20045;-65
2024/01/03 04:08:15;;;;;;;1999.90;999.90;;;;;;;2.50;91.48;96012.69;5073166;28;20080;-69
2024/01/03 04:10:42;;;;;;;1999.90;999.90;;;;;;;2.48;91.21;96011.00;5073230;28;20056;-65
2024/01/03 04:13:09;;;;;;;1999.90;999.90;;;;;;;2.48;91.06;96005.84;5073215;28;20048;-67
2024/01/03 04:15:37;;;;;;;1999.90;999.90;;;;;;;2.48;91.29;96008.41;5073185;28;20072;-64
2024/01/03 04:18:05;;;;;;;1999.90;999.90;;;;;;;2.48;91.24;96011.88;5073214;28;20060;-68
2024/01/03 04:20:32;;;;;;;1999.90;999.90;;;;;;;2.47;91.77;96004.97;5072920;28;20052;-69
2024/01/03 04:23:01;;;;;;;1999.90;999.90;;;;;;;2.46;91.79;96007.56;5073138;28;20098;-69
2024/01/03 04:25:28;;;;;;;1999.90;999.90;;;;;;;2.48;92.03;96003.25;5073052;28;20049;-68
2024/01/03 04:27:55;;;;;;;1999.90;999.90;;;;;;;2.51;92.16;96005.78;5073438;28;20406;-69
2024/01/03 04:30:22;;;;;;;1999.90;999.90;;;;;;;2.53;91.99;96009.22;5073076;28;20567;-69
2024/01/03 04:32:49;;;;;;;1999.90;999.90;;;;;;;2.54;92.02;96008.34;5073004;28;20048;-66
2024/01/03 04:35:16;;;;;;;1999.90;999.90;;;;;;;2.52;91.79;95998.03;5073031;28;20079;-68
2024/01/03 04:37:43;;;;;;;1999.90;999.90;;;;;;;2.51;91.84;95996.31;5073035;28;20044;-64
2024/01/03 04:40:13;;;;;;;1999.90;999.90;;;;;;;2.47;92.21;95999.81;5072862;28;20091;-69
2024/01/03 04:45:24;;;;;;;1999.90;999.90;;;;;;;2.37;92.41;96001.69;5054120;28;20139;-66
2024/01/03 04:47:51;;;;;;;1999.90;999.90;;;;;;;2.39;92.63;95996.50;5072925;28;20505;-67
2024/01/03 04:50:19;;;;;;;1999.90;999.90;;;;;;;2.45;93.08;95985.22;5073016;28;20544;-63
2024/01/03 04:52:46;;;;;;;1999.90;999.90;;;;;;;2.45;93.04;95983.50;5072677;28;20448;-63
2024/01/03 04:55:15;;;;;;;1999.90;999.90;;;;;;;2.43;92.97;95990.41;5072761;28;20090;-66
2024/01/03 04:57:48;;;;;;;1999.90;999.90;;;;;;;2.45;92.99;96001.56;5072736;28;20048;-67
2024/01/03 05:00:16;;;;;;;1999.90;999.90;;;;;;;2.43;93.55;96000.72;5073749;28;20102;-66
2024/01/03 05:02:43;;;;;;;1999.90;999.90;;;;;;;2.46;93.82;96010.16;5076630;28;20080;-67
2024/01/03 05:05:10;;;;;;;1999.90;999.90;;;;;;;2.53;94.07;96016.97;5076599;28;20460;-65
2024/01/03 05:07:37;;;;;;;1999.90;999.90;;;;;;;2.57;94.10;96008.28;5076714;28;20041;-64
2024/01/03 05:10:08;;;;;;;1999.90;999.90;;;;;;;2.58;94.36;96009.13;5076547;28;20144;-64
2024/01/03 05:12:38;;;;;;;1999.90;999.90;;;;;;;2.61;94.26;96009.94;5076865;28;20048;-68
2024/01/03 05:15:05;;;;;;;1999.90;999.90;;;;;;;2.65;94.30;96003.84;5076848;28;20079;-67
2024/01/03 05:17:33;;;;;;;1999.90;999.90;;;;;;;2.66;94.32;95996.97;5076314;28;20048;-67
2024/01/03 05:20:00;;;;;;;1999.90;999.90;;;;;;;2.58;94.10;95991.91;5076037;28;20048;-66
2024/01/03 05:22:28;;;;;;;1999.90;999.90;;;;;;;2.52;94.56;95992.00;5076264;28;20045;-65
2024/01/03 05:24:55;;;;;;;1999.90;999.90;;;;;;;2.51;95.57;95992.88;5076184;28;20044;-65
2024/01/03 05:27:23;;;;;;;1999.90;999.90;;;;;;;2.56;96.48;95995.41;5076221;28;20048;-67
2024/01/03 05:29:51;;;;;;;1999.90;999.90;;;;;;;2.63;96.53;95997.00;5076419;28;20048;-65
2024/01/03 05:32:18;;;;;;;1999.90;999.90;;;;;;;2.63;96.07;95991.84;5076002;28;20044;-65
2024/01/03 05:34:51;;;;;;;1999.90;999.90;;;;;;;2.63;95.71;96003.03;5076011;28;20447;-69
2024/01/03 05:37:18;;;;;;;1999.90;999.90;;;;;;;2.64;95.62;95996.13;5075486;28;20047;-62
2024/01/03 05:39:46;;;;;;;1999.90;999.90;;;;;;;2.62;95.61;95993.56;5075841;28;20044;-68
2024/01/03 05:42:23;;;;;;;1999.90;999.90;;;;;;;2.62;95.45;95992.72;5076031;28;20070;-65
2024/01/03 05:44:52;;;;;;;1999.90;999.90;;;;;;;2.64;95.36;95991.81;5075784;28;20044;-64
2024/01/03 05:47:19;;;;;;;1999.90;999.90;;;;;;;2.68;95.15;96002.94;5075844;28;20127;-66
2024/01/03 05:49:47;;;;;;;1999.90;999.90;;;;;;;2.66;95.38;95999.56;5075967;28;20055;-62
2024/01/03 05:52:14;;;;;;;1999.90;999.90;;;;;;;2.69;95.02;95994.34;5075757;28;20059;-68
2024/01/03 05:54:42;;;;;;;1999.90;999.90;;;;;;;2.69;94.48;95996.91;5075783;28;20049;-66
2024/01/03 05:57:09;;;;;;;1999.90;999.90;;;;;;;2.67;93.86;96003.00;5075649;28;20491;-65
2024/01/03 05:59:36;;;;;;;1999.90;999.90;;;;;;;2.65;93.86;96001.25;5075516;28;20052;-67
2024/01/03 06:02:05;;;;;;;1999.90;999.90;;;;;;;2.66;94.42;96017.63;5075525;28;20045;-66
2024/01/03 06:04:33;;;;;;;1999.90;999.90;;;;;;;2.69;94.32;96012.41;5075451;28;20487;-66
2024/01/03 06:07:00;;;;;;;1999.90;999.90;;;;;;;2.73;94.39;96002.88;5075738;28;20086;-65
2024/01/03 06:09:27;;;;;;;1999.90;999.90;;;;;;;2.72;94.27;96006.34;5075405;28;20048;-67
2024/01/03 06:11:54;;;;;;;1999.90;999.90;;;;;;;2.72;94.43;96009.78;5074309;28;20147;-65
2024/01/03 06:14:38;;;;;;;1999.90;999.90;;;;;;;2.75;94.57;96012.34;5075394;28;20114;-66
2024/01/03 06:17:07;;;;;;;1999.90;999.90;;;;;;;2.76;94.58;96006.28;5075320;28;20052;-65
2024/01/03 06:19:37;;;;;;;1999.90;999.90;;;;;;;2.71;94.50;96005.47;5075092;28;20048;-66
2024/01/03 06:22:04;;;;;;;1999.90;999.90;;;;;;;2.62;94.57;96013.41;5075123;28;20509;-65
2024/01/03 06:24:32;;;;;;;1999.90;999.90;;;;;;;2.58;94.91;96011.72;5075060;28;20406;-69
2024/01/03 06:29:43;;;;;;;1999.90;999.90;;;;;;;2.64;96.15;96009.91;5075009;28;20487;-68
2024/01/03 06:32:14;;;;;;;1999.90;999.90;;;;;;;2.63;96.54;96005.63;5074951;28;20045;-67
2024/01/03 06:34:42;;;;;;;1999.90;999.90;;;;;;;2.65;96.59;96008.19;5074925;28;20044;-67
2024/01/03 06:37:09;;;;;;;1999.90;999.90;;;;;;;2.72;96.83;96003.75;5074953;28;20049;-63
2024/01/03 06:39:36;;;;;;;1999.90;999.90;;;;;;;2.79;97.24;96007.94;5074963;28;20406;-68
2024/01/03 06:42:04;;;;;;;1999.90;999.90;;;;;;;2.85;97.12;96022.50;5075002;28;20128;-66
2024/01/03 06:44:31;;;;;;;1999.90;999.90;;;;;;;2.90;97.18;96026.75;5074844;28;20100;-68
2024/01/03 06:46:58;;;;;;;1999.90;999.90;;;;;;;2.98;96.80;96033.50;5074830;28;20072;-67
2024/01/03 06:49:27;;;;;;;1999.90;999.90;;;;;;;2.99;96.65;96035.22;5074711;28;20094;-66
2024/01/03 06:51:55;;;;;;;1999.90;999.90;;;;;;;3.06;95.72;96025.63;5074540;28;20055;-64
2024/01/03 06:54:22;;;;;;;1999.90;999.90;;;;;;;3.06;96.00;96029.06;5074957;28;20243;-64
2024/01/03 06:56:52;;;;;;;1999.90;999.90;;;;;;;3.13;96.45;96032.41;5074549;28;20131;-67
2024/01/03 06:59:19;;;;;;;1999.90;999.90;;;;;;;3.24;96.57;96027.91;5074439;28;20110;-68
2024/01/03 07:01:46;;;;;;;1999.90;999.90;;;;;;;3.34;96.42;96012.25;5074472;28;20403;-65
2024/01/03 07:04:15;;;;;;;1999.90;999.90;;;;;;;3.45;96.73;96014.63;5074337;28;20490;-66
2024/01/03 07:06:47;;;;;;;1999.90;999.90;;;;;;;3.44;96.95;96018.97;5074475;28;20071;-68
2024/01/03 07:09:15;;;;;;;1999.90;999.90;;;;;;;3.46;97.42;96021.50;5074194;28;20044;-65
2024/01/03 07:11:42;;;;;;;1999.90;999.90;;;;;;;3.56;97.82;96020.47;5074179;28;20049;-68
2024/01/03 07:14:12;;;;;;;1999.90;999.90;;;;;;;3.62;97.82;96022.94;5074194;28;20048;-68
2024/01/03 07:16:39;;;;;;;1999.90;999.90;;;;;;;3.65;97.27;96012.50;5074152;28;20045;-69
2024/01/03 07:19:07;;;;;;;1999.90;999.90;;;;;;;3.76;97.07;96026.97;5074012;28;20052;-65
2024/01/03 07:21:35;;;;;;;1999.90;999.90;;;;;;;3.82;97.04;96018.28;5073889;28;20140;-64
2024/01/03 07:24:04;;;;;;;1999.90;999.90;;;;;;;3.88;97.14;96015.53;5073763;28;20091;-68
2024/01/03 07:26:31;;;;;;;1999.90;999.90;;;;;;;3.96;97.52;96021.44;5073992;28;20063;-68
2024/01/03 07:28:58;;;;;;;1999.90;999.90;;;;;;;4.03;97.43;96016.97;5073790;28;20418;-67
2024/01/03 07:31:27;;;;;;;1999.90;999.90;;;;;;;4.13;97.58;96009.88;5073715;28;20132;-68
2024/01/03 07:33:57;;;;;;;1999.90;999.90;;;;;;;4.21;96.85;96009.72;5073770;28;20072;-65
2024/01/03 07:36:24;;;;;;;1999.90;999.90;;;;;;;4.29;96.48;96002.63;5073774;28;20579;-68
2024/01/03 07:38:51;;;;;;;1999.90;999.90;;;;;;;4.34;96.13;95995.63;5073691;28;20102;-66
2024/01/03 07:41:22;;;;;;;1999.90;999.90;;;;;;;4.42;96.02;96004.06;5073555;28;20055;-65
2024/01/03 07:43:49;;;;;;;1999.90;999.90;;;;;;;4.49;95.60;95994.41;5073510;28;20135;-64
2024/01/03 07:46:16;;;;;;;1999.90;999.90;;;;;;;4.50;95.95;96001.31;5073714;28;20053;-68
2024/01/03 07:48:44;;;;;;;1999.90;999.90;;;;;;;4.43;96.13;95997.16;5073447;28;20439;-67
2024/01/03 07:51:11;;;;;;;1999.90;999.90;;;;;;;4.45;96.50;95992.78;5073717;28;20140;-66
2024/01/03 07:53:39;;;;;;;1999.90;999.90;;;;;;;4.52;96.20;95976.22;5073441;28;20055;-67
2024/01/03 07:56:09;;;;;;;1999.90;999.90;;;;;;;4.64;96.44;95984.59;5073391;28;20048;-67
2024/01/03 07:58:37;;;;;;;1999.90;999.90;;;;;;;4.70;96.14;95991.38;5073402;28;20091;-69
2024/01/03 08:01:05;;;;;;;1999.90;999.90;;;;;;;4.73;95.96;95996.50;5073484;28;20113;-65
2024/01/03 08:03:32;;;;;;;1999.90;999.90;;;;;;;4.76;96.41;95986.88;5073374;28;20052;-67
2024/01/03 08:05:59;;;;;;;1999.90;999.90;;;;;;;4.85;95.99;95991.00;5073380;28;20106;-64
2024/01/03 08:08:28;;;;;;;1999.90;999.90;;;;;;;4.88;96.25;95988.34;5073230;28;20041;-67
2024/01/03 08:10:55;;;;;;;1999.90;999.90;;;;;;;4.96;95.72;95979.53;5073274;28;20051;-65
2024/01/03 08:13:23;;;;;;;1999.90;999.90;;;;;;;5.03;95.60;95987.09;5073077;28;20124;-66
2024/01/03 08:15:52;;;;;;;1999.90;999.90;;;;;;;5.15;95.68;95992.91;5073119;28;20060;-67
2024/01/03 08:18:19;;;;;;;1999.90;999.90;;;;;;;5.17;95.67;95998.88;5073159;28;20040;-66
2024/01/03 08:20:46;;;;;;;1999.90;999.90;;;;;;;5.25;95.59;95994.38;5072913;28;20468;-66
2024/01/03 08:23:13;;;;;;;1999.90;999.90;;;;;;;5.33;95.49;95991.59;5073032;28;20048;-65
2024/01/03 08:25:40;;;;;;;1999.90;999.90;;;;;;;5.36;95.58;95988.03;5073138;28;20056;-66
2024/01/03 08:28:07;;;;;;;1999.90;999.90;;;;;;;5.38;95.00;95976.72;5073008;28;20578;-68
2024/01/03 08:30:34;;;;;;;1999.90;999.90;;;;;;;5.47;94.48;95972.19;5072949;28;20083;-66
2024/01/03 08:33:03;;;;;;;1999.90;999.90;;;;;;;5.57;94.78;95964.13;5073177;28;20439;-66
2024/01/03 08:35:33;;;;;;;1999.90;999.90;;;;;;;5.63;94.51;95955.31;5072394;28;20502;-65
2024/01/03 08:38:00;;;;;;;1999.90;999.90;;;;;;;5.73;94.89;95955.91;5072820;28;20482;-64
2024/01/03 08:40:27;;;;;;;1999.90;999.90;;;;;;;5.86;95.06;95950.34;5072945;28;20498;-68
2024/01/03 08:42:54;;;;;;;1999.90;999.90;;;;;;;6.00;94.80;95960.34;5072838;28;20088;-67
2024/01/03 08:45:21;;;;;;;1999.90;999.90;;;;;;;6.04;94.66;95956.81;5072883;28;20045;-70
2024/01/03 08:47:49;;;;;;;1999.90;999.90;;;;;;;6.00;94.67;95961.22;5072894;28;20040;-65
2024/01/03 08:50:18;;;;;;;1999.90;999.90;;;;;;;6.03;94.41;95958.53;5072798;28;20056;-66
2024/01/03 08:52:45;;;;;;;1999.90;999.90;;;;;;;6.02;94.23;95946.44;5072735;28;20482;-64
2024/01/03 08:55:12;;;;;;;1999.90;999.90;;;;;;;6.04;95.03;95946.41;5072730;28;20055;-69
2024/01/03 08:57:40;;;;;;;1999.90;999.90;;;;;;;6.21;94.77;95950.25;5072611;28;20059;-67
2024/01/03 09:00:08;;;;;;;1999.90;999.90;;;;;;;6.18;94.51;95946.03;5072493;28;20054;-67
2024/01/03 09:02:36;;;;;;;1999.90;999.90;;;;;;;6.23;94.04;95943.28;5072601;28;20048;-68
2024/01/03 09:05:03;;;;;;;1999.90;999.90;;;;;;;6.24;93.95;95929.38;5072666;28;20060;-65
2024/01/03 09:07:31;;;;;;;1999.90;999.90;;;;;;;6.30;93.77;95932.63;5072703;28;20041;-69
2024/01/03 09:09:59;;;;;;;1999.90;999.90;;;;;;;6.40;93.45;95928.03;5072623;28;20066;-66
2024/01/03 09:12:26;;;;;;;1999.90;999.90;;;;;;;6.51;92.83;95925.09;5072498;28;20148;-68
2024/01/03 09:14:53;;;;;;;1999.90;999.90;;;;;;;6.62;92.55;95926.50;5072762;28;20118;-63
2024/01/03 09:17:20;;;;;;;1999.90;999.90;;;;;;;6.65;91.81;95927.25;5072469;28;20565;-65
2024/01/03 09:19:48;;;;;;;1999.90;999.90;;;;;;;6.73;91.42;95918.34;5072286;28;20509;-67
2024/01/03 09:22:17;;;;;;;1999.90;999.90;;;;;;;6.78;91.10;95914.72;5072318;28;20418;-66
2024/01/03 09:24:46;;;;;;;1999.90;999.90;;;;;;;6.88;90.52;95915.25;5072654;28;20051;-67
2024/01/03 09:27:13;;;;;;;1999.90;999.90;;;;;;;6.93;89.61;95920.31;5072367;28;20051;-65
2024/01/03 09:29:42;;;;;;;1999.90;999.90;;;;;;;6.99;89.45;95916.63;5072482;28;20135;-64
2024/01/03 09:32:09;;;;;;;1999.90;999.90;;;;;;;7.00;89.61;95908.78;5072350;28;20456;-69
2024/01/03 09:34:40;;;;;;;1999.90;999.90;;;;;;;6.97;90.14;95900.22;5072448;28;20055;-67
2024/01/03 09:37:07;;;;;;;1999.90;999.90;;;;;;;7.01;90.33;95910.47;5072454;28;20548;-69
2024/01/03 09:39:34;;;;;;;1999.90;999.90;;;;;;;7.06;90.20;95905.13;5072430;28;20506;-68
2024/01/03 09:42:04;;;;;;;1999.90;999.90;;;;;;;7.08;89.98;95892.94;5072251;28;20064;-69
2024/01/03 09:44:38;;;;;;;1999.90;999.90;;;;;;;7.14;89.55;95890.13;5072350;28;20410;-63
2024/01/03 09:47:07;;;;;;;1999.90;999.90;;;;;;;7.17;88.83;95887.38;5073137;28;20632;-66
2024/01/03 09:49:34;;;;;;;1999.90;999.90;;;;;;;7.14;88.56;95887.53;5075899;28;20084;-69
2024/01/03 09:52:02;;;;;;;1999.90;999.90;;;;;;;7.15;88.60;95888.34;5075677;28;20051;-64
2024/01/03 09:54:31;;;;;;;1999.90;999.90;;;;;;;7.20;88.10;95879.47;5075829;28;20055;-68
2024/01/03 09:56:58;;;;;;;1999.90;999.90;;;;;;;7.23;87.21;95883.75;5075665;28;20127;-66
2024/01/03 09:59:27;;;;;;;1999.90;999.90;;;;;;;7.14;87.17;95871.06;5075735;28;20051;-70
2024/01/03 10:01:56;;;;;;;1999.90;999.90;;;;;;;7.11;87.92;95872.03;5075573;28;20098;-63
2024/01/03 10:04:23;;;;;;;1999.90;999.90;;;;;;;7.11;87.34;95865.94;5075544;28;20044;-65
2024/01/03 10:06:54;;;;;;;1999.90;999.90;;;;;;;7.11;86.93;95864.22;5075682;28;20044;-69
2024/01/03 10:09:21;;;;;;;1999.90;999.90;;;;;;;7.12;87.09;95875.44;5075509;28;20076;-66
2024/01/03 10:11:51;;;;;;;1999.90;999.90;;;;;;;7.12;86.94;95878.91;5075464;28;20129;-69
2024/01/03 10:14:19;;;;;;;1999.90;999.90;;;;;;;7.14;86.35;95877.13;5075412;28;20045;-68
2024/01/03 10:16:48;;;;;;;1999.90;999.90;;;;;;;7.15;85.68;95875.34;5075201;28;20080;-64
2024/01/03 10:19:17;;;;;;;1999.90;999.90;;;;;;;7.18;85.48;95865.69;5075301;28;20101;-66
2024/01/03 10:21:49;;;;;;;1999.90;999.90;;;;;;;7.20;85.27;95858.66;5075002;28;20063;-66
2024/01/03 10:24:16;;;;;;;1999.90;999.90;;;;;;;7.22;85.58;95858.59;5075155;28;20059;-66
2024/01/03 10:26:45;;;;;;;1999.90;999.90;;;;;;;7.09;86.12;95855.59;5074292;28;20045;-66
2024/01/03 10:29:14;;;;;;;1999.90;999.90;;;;;;;7.04;87.20;95845.34;5075156;28;20091;-66
2024/01/03 10:31:42;;;;;;;1999.90;999.90;;;;;;;7.05;87.62;95848.81;5074984;28;20165;-64
2024/01/03 10:34:15;;;;;;;1999.90;999.90;;;;;;;7.05;87.98;95854.03;5074987;28;20140;-66
2024/01/03 10:36:43;;;;;;;1999.90;999.90;;;;;;;7.05;88.21;95848.81;5075061;28;20376;-64
2024/01/03 10:39:14;;;;;;;1999.90;999.90;;;;;;;7.10;88.22;95844.28;5074875;28;20074;-66
2024/01/03 10:41:43;;;;;;;1999.90;999.90;;;;;;;7.15;87.94;95841.53;5074728;28;20057;-67
2024/01/03 10:44:12;;;;;;;1999.90;999.90;;;;;;;7.16;87.52;95838.88;5074834;28;20136;-68
2024/01/03 10:46:40;;;;;;;1999.90;999.90;;;;;;;7.16;87.25;95836.28;5074743;28;20070;-64
2024/01/03 10:49:07;;;;;;;1999.90;999.90;;;;;;;7.19;87.14;95836.16;5074760;28;20076;-67
2024/01/03 10:51:40;;;;;;;1999.90;999.90;;;;;;;7.23;86.53;95825.66;5074582;28;20057;-63
2024/01/03 10:54:11;;;;;;;1999.90;999.90;;;;;;;7.24;86.33;95825.59;5074823;28;20441;-67
2024/01/03 10:56:38;;;;;;;1999.90;999.90;;;;;;;7.26;86.57;95815.13;5074562;28;20053;-68
2024/01/03 10:59:06;;;;;;;1999.90;999.90;;;;;;;7.26;86.32;95813.41;5074229;28;20049;-66
2024/01/03 11:01:40;;;;;;;1999.90;999.90;;;;;;;7.27;86.55;95807.28;5074420;28;20064;-67
2024/01/03 11:04:17;;;;;;;1999.90;999.90;;;;;;;7.30;86.51;95811.50;5074455;28;20048;-67
2024/01/03 11:06:53;;;;;;;1999.90;999.90;;;;;;;7.34;86.75;95815.69;5074523;28;20048;-66
2024/01/03 11:09:21;;;;;;;1999.90;999.90;;;;;;;7.37;86.44;95799.16;5074381;28;20547;-65
2024/01/03 11:11:48;;;;;;;1999.90;999.90;;;;;;;7.39;86.71;95792.97;5074306;28;20453;-66